Time;durP1;ratioP1;P1;durP2;ratioP2;P2;SDS_P1;SDS_P2;PMS_P1;PMS_P2;Temp;Humidity;BMP_temperature;BMP_pressure;BME280_temperature;BME280_humidity;BME280_pressure;Samples;Min_cycle;Max_cycle;Signal;HPM_P1;HPM_P2
2022/01/28 00:00:27;;;;;;;21.27;3.83;;;4.50;99.90;;;;;;5031855;28;20136;-70
2022/01/28 00:02:57;;;;;;;19.55;3.50;;;4.50;99.90;;;;;;5042811;28;20053;-70
2022/01/28 00:05:24;;;;;;;9.33;2.70;;;4.60;99.90;;;;;;5050934;28;20049;-71
2022/01/28 00:07:54;;;;;;;19.67;3.47;;;4.60;99.90;;;;;;5049908;28;20463;-70
2022/01/28 00:10:22;;;;;;;15.48;3.90;;;4.60;99.90;;;;;;5050686;28;20118;-70
2022/01/28 00:13:09;;;;;;;16.83;3.65;;;4.60;99.90;;;;;;5030907;28;20060;-69
2022/01/28 00:15:42;;;;;;;13.68;4.18;;;4.50;99.90;;;;;;5048405;28;20059;-70
2022/01/28 00:37:37;;;;;;;12.20;3.72;;;4.20;99.90;;;;;;5068157;28;20184;-70
2022/01/28 00:40:04;;;;;;;17.45;3.92;;;4.20;99.90;;;;;;5055286;28;20052;-71
2022/01/28 00:42:31;;;;;;;14.75;4.05;;;4.20;99.90;;;;;;5054548;28;20053;-70
2022/01/28 00:44:58;;;;;;;19.45;3.80;;;4.20;99.90;;;;;;5055654;28;20052;-70
2022/01/28 00:47:26;;;;;;;17.08;3.40;;;4.20;99.90;;;;;;5055205;28;20111;-70
2022/01/28 00:49:53;;;;;;;14.10;4.55;;;4.20;99.90;;;;;;5054518;28;20106;-70
2022/01/28 00:52:20;;;;;;;24.25;4.53;;;4.20;99.90;;;;;;5055352;28;20045;-70
2022/01/28 00:54:47;;;;;;;25.98;3.67;;;4.30;99.90;;;;;;5056137;28;20443;-70
2022/01/28 00:57:14;;;;;;;18.38;5.10;;;4.40;99.90;;;;;;5054522;28;20095;-71
2022/01/28 00:59:40;;;;;;;13.05;4.30;;;4.60;99.90;;;;;;5056043;28;20060;-70
2022/01/28 01:02:07;;;;;;;16.00;4.50;;;4.70;99.90;;;;;;5055113;28;20118;-72
2022/01/28 01:04:35;;;;;;;17.02;4.10;;;4.70;99.90;;;;;;5054714;28;20049;-70
2022/01/28 01:07:03;;;;;;;14.73;4.25;;;4.80;99.90;;;;;;5055349;28;20526;-71
2022/01/28 01:09:30;;;;;;;14.82;3.17;;;4.80;99.90;;;;;;5054663;28;20060;-70
2022/01/28 01:11:56;;;;;;;12.43;3.42;;;4.80;99.90;;;;;;5054944;28;20138;-71
2022/01/28 01:14:23;;;;;;;14.07;3.05;;;4.80;99.90;;;;;;5055090;28;20049;-71
2022/01/28 01:17:04;;;;;;;14.52;3.72;;;4.70;99.90;;;;;;5054568;28;20501;-70
2022/01/28 01:19:36;;;;;;;17.85;3.63;;;4.70;99.90;;;;;;5055562;28;20049;-71
2022/01/28 01:22:07;;;;;;;14.32;4.65;;;4.60;99.90;;;;;;5054871;28;20131;-70
2022/01/28 01:24:36;;;;;;;13.93;3.97;;;4.60;99.90;;;;;;5054026;28;20045;-71
2022/01/28 01:27:04;;;;;;;14.43;3.95;;;4.50;99.90;;;;;;5056188;28;20049;-71
2022/01/28 01:29:31;;;;;;;18.30;3.78;;;4.60;99.90;;;;;;5054545;28;20053;-71
2022/01/28 01:32:02;;;;;;;18.13;4.05;;;4.70;99.90;;;;;;5053833;28;20052;-71
2022/01/28 01:34:30;;;;;;;16.05;4.28;;;4.70;99.90;;;;;;5055184;28;20115;-71
2022/01/28 01:36:56;;;;;;;11.75;4.20;;;4.80;99.90;;;;;;5053654;28;20077;-70
2022/01/28 01:39:29;;;;;;;20.15;4.90;;;4.80;99.90;;;;;;5052783;28;20049;-70
2022/01/28 01:42:00;;;;;;;17.02;4.70;;;4.80;99.90;;;;;;5053431;28;20493;-71
2022/01/28 01:44:37;;;;;;;19.27;4.20;;;4.80;99.90;;;;;;5053442;28;20501;-71
2022/01/28 01:52:37;;;;;;;23.75;4.30;;;4.60;99.90;;;;;;5069333;28;20060;-71
2022/01/28 01:55:06;;;;;;;15.93;3.85;;;4.60;99.90;;;;;;5053002;28;20126;-71
2022/01/28 01:57:34;;;;;;;21.67;4.63;;;4.60;99.90;;;;;;5053303;28;20041;-71
2022/01/28 02:00:01;;;;;;;16.75;4.57;;;4.60;99.90;;;;;;5052731;28;20182;-70
2022/01/28 02:02:28;;;;;;;23.67;5.25;;;4.70;99.90;;;;;;5053084;28;20099;-71
2022/01/28 02:04:55;;;;;;;19.13;4.82;;;4.70;99.90;;;;;;5054260;28;20106;-71
2022/01/28 02:07:21;;;;;;;17.30;4.93;;;4.70;99.90;;;;;;5052274;28;20084;-71
2022/01/28 02:09:48;;;;;;;14.07;4.22;;;4.70;99.90;;;;;;5053130;28;20118;-71
2022/01/28 02:12:16;;;;;;;21.77;4.22;;;4.80;99.90;;;;;;5052798;28;20098;-71
2022/01/28 02:14:43;;;;;;;19.90;4.07;;;4.80;99.90;;;;;;5052607;28;20370;-72
2022/01/28 02:17:10;;;;;;;22.33;5.25;;;5.00;99.90;;;;;;5052796;28;20045;-72
2022/01/28 02:19:38;;;;;;;29.67;5.38;;;4.90;99.90;;;;;;5053269;28;20061;-71
2022/01/28 02:22:07;;;;;;;17.38;3.80;;;5.00;99.90;;;;;;5053193;28;20045;-71
2022/01/28 02:24:42;;;;;;;21.92;4.32;;;5.00;99.90;;;;;;5053838;28;20412;-70
2022/01/28 02:27:12;;;;;;;17.38;4.55;;;5.10;99.90;;;;;;5052029;28;20076;-70
2022/01/28 02:29:39;;;;;;;22.00;4.93;;;5.10;99.90;;;;;;5052639;28;20053;-71
2022/01/28 02:32:08;;;;;;;16.42;4.18;;;5.10;99.90;;;;;;5052284;28;20098;-71
2022/01/28 02:34:36;;;;;;;26.88;7.13;;;5.10;99.90;;;;;;5052305;28;20049;-70
2022/01/28 02:37:03;;;;;;;18.05;4.43;;;5.10;99.90;;;;;;5015562;28;1075673;-70
2022/01/28 02:39:32;;;;;;;21.10;4.80;;;5.10;99.90;;;;;;5054881;28;20056;-71
2022/01/28 02:42:05;;;;;;;19.10;5.40;;;5.10;99.90;;;;;;5053021;28;20110;-71
2022/01/28 02:44:46;;;;;;;15.95;5.88;;;5.20;99.90;;;;;;5053374;28;20118;-70
2022/01/28 02:47:16;;;;;;;28.40;6.45;;;5.20;99.90;;;;;;5053062;28;20045;-71
2022/01/28 02:49:44;;;;;;;19.33;5.53;;;5.20;99.90;;;;;;5052428;28;20077;-70
2022/01/28 02:52:19;;;;;;;17.23;4.93;;;5.20;99.90;;;;;;5053250;28;20140;-70
2022/01/28 02:54:49;;;;;;;24.40;6.32;;;5.20;99.90;;;;;;5053033;28;20497;-71
2022/01/28 02:57:22;;;;;;;22.00;4.93;;;5.20;99.90;;;;;;5052743;28;20140;-71
2022/01/28 02:59:49;;;;;;;19.95;4.45;;;5.20;99.90;;;;;;5053387;28;20413;-70
2022/01/28 03:02:16;;;;;;;26.38;4.72;;;5.10;99.90;;;;;;5051648;28;20064;-72
2022/01/28 03:05:05;;;;;;;31.33;5.72;;;5.10;99.90;;;;;;5053046;28;20715;-72
2022/01/28 03:07:32;;;;;;;19.55;4.88;;;5.10;99.90;;;;;;5052422;28;20044;-70
2022/01/28 03:10:26;;;;;;;20.27;3.40;;;5.10;99.90;;;;;;5052204;28;20057;-71
2022/01/28 03:13:13;;;;;;;20.85;5.03;;;5.10;99.90;;;;;;5052301;28;20075;-69
2022/01/28 03:15:42;;;;;;;12.82;3.42;;;5.10;99.90;;;;;;5052786;28;20529;-71
2022/01/28 03:18:12;;;;;;;19.40;4.80;;;5.10;99.90;;;;;;5052259;28;20065;-70
2022/01/28 03:20:43;;;;;;;37.45;5.22;;;5.00;99.90;;;;;;5052759;28;20048;-70
2022/01/28 03:23:10;;;;;;;;;;;5.20;99.90;;;;;;5051676;28;20519;-71
2022/01/28 03:25:43;;;;;;;17.50;3.72;;;5.00;99.90;;;;;;5053424;28;20325;-70
2022/01/28 03:28:10;;;;;;;16.63;3.72;;;4.90;99.90;;;;;;5052275;28;20049;-71
2022/01/28 03:30:37;;;;;;;15.20;4.00;;;4.90;99.90;;;;;;5053258;28;20048;-69
2022/01/28 03:33:03;;;;;;;17.45;3.53;;;4.80;99.90;;;;;;5052571;28;20053;-70
2022/01/28 03:35:33;;;;;;;17.42;4.25;;;4.80;99.90;;;;;;5052550;28;20060;-69
2022/01/28 03:38:01;;;;;;;17.88;4.38;;;4.80;99.90;;;;;;5031634;28;20497;-71
2022/01/28 03:40:31;;;;;;;12.75;4.78;;;4.80;99.90;;;;;;5032679;28;20053;-70
2022/01/28 03:42:59;;;;;;;12.90;3.35;;;4.80;99.90;;;;;;5043388;28;20059;-71
2022/01/28 03:45:26;;;;;;;15.30;3.58;;;4.80;99.90;;;;;;5052832;28;20053;-70
2022/01/28 03:47:53;;;;;;;11.15;3.58;;;4.80;99.90;;;;;;5052051;28;20080;-70
2022/01/28 03:50:20;;;;;;;15.60;4.18;;;4.90;99.90;;;;;;5052158;28;20052;-70
2022/01/28 03:52:46;;;;;;;26.42;4.68;;;4.90;99.90;;;;;;5051056;28;20082;-70
2022/01/28 03:55:13;;;;;;;19.40;3.88;;;4.90;99.90;;;;;;5051990;28;20053;-70
2022/01/28 03:57:40;;;;;;;19.55;4.95;;;4.80;99.90;;;;;;5051532;28;20097;-70
2022/01/28 04:00:10;;;;;;;21.95;4.78;;;4.80;99.90;;;;;;5051118;28;20578;-68
2022/01/28 04:02:41;;;;;;;19.65;4.47;;;4.70;99.90;;;;;;5051564;28;20523;-70
2022/01/28 04:13:24;;;;;;;18.38;4.43;;;4.60;99.90;;;;;;5050760;28;20082;-71
2022/01/28 04:16:15;;;;;;;13.85;3.63;;;4.50;99.90;;;;;;5052005;28;20382;-70
2022/01/28 04:18:39;;;;;;;18.13;4.18;;;4.50;99.90;;;;;;5031495;28;20183;-71
2022/01/28 04:21:06;;;;;;;12.20;3.35;;;4.50;99.90;;;;;;5031186;28;20057;-71
2022/01/28 04:23:33;;;;;;;19.15;4.60;;;4.40;99.90;;;;;;5052113;28;20910;-72
2022/01/28 04:26:00;;;;;;;18.52;4.30;;;4.40;99.90;;;;;;5052081;28;20045;-70
2022/01/28 04:28:27;;;;;;;18.52;4.50;;;4.40;99.90;;;;;;5050874;28;20106;-71
2022/01/28 04:30:55;;;;;;;16.35;4.20;;;4.40;99.90;;;;;;5051516;28;20049;-71
2022/01/28 04:33:22;;;;;;;18.50;4.32;;;4.30;99.90;;;;;;5050780;28;20060;-71
2022/01/28 04:35:52;;;;;;;18.60;4.72;;;4.30;99.90;;;;;;5051464;28;20501;-70
2022/01/28 04:38:29;;;;;;;17.00;4.63;;;4.30;99.90;;;;;;5051252;28;20055;-70
2022/01/28 04:41:05;;;;;;;17.52;4.97;;;4.20;99.90;;;;;;5051044;28;20481;-70
2022/01/28 04:43:37;;;;;;;19.73;4.20;;;4.20;99.90;;;;;;5051607;28;20143;-69
2022/01/28 04:46:11;;;;;;;17.92;4.80;;;4.20;99.90;;;;;;5051631;28;20136;-69
2022/01/28 04:48:44;;;;;;;21.25;5.18;;;4.20;99.90;;;;;;5050616;28;20049;-70
2022/01/28 04:51:19;;;;;;;23.42;4.72;;;4.30;99.90;;;;;;5050941;28;20088;-69
2022/01/28 04:54:00;;;;;;;17.08;4.43;;;4.20;99.90;;;;;;5052650;28;20084;-71
2022/01/28 04:56:40;;;;;;;20.23;4.22;;;4.20;99.90;;;;;;5050843;28;20085;-71
2022/01/28 05:04:55;;;;;;;15.93;4.13;;;4.10;99.90;;;;;;5038592;28;20455;-70
2022/01/28 05:07:38;;;;;;;18.05;3.90;;;4.00;99.90;;;;;;5051689;28;20053;-71
2022/01/28 05:13:17;;;;;;;21.75;5.28;;;4.00;99.90;;;;;;5029240;28;20044;-70
2022/01/28 05:24:32;;;;;;;17.58;5.60;;;3.90;99.90;;;;;;5064556;28;20052;-69
2022/01/28 05:27:01;;;;;;;16.85;4.20;;;3.80;99.90;;;;;;5054728;28;20049;-69
2022/01/28 05:29:28;;;;;;;19.73;4.95;;;3.80;99.90;;;;;;5053793;28;20056;-69
2022/01/28 05:31:55;;;;;;;17.35;4.63;;;3.80;99.90;;;;;;5050815;28;20389;-69
2022/01/28 05:34:26;;;;;;;19.05;5.50;;;3.80;99.90;;;;;;5052194;28;20065;-69
2022/01/28 05:36:53;;;;;;;15.18;3.70;;;3.90;99.90;;;;;;5066393;28;20067;-69
2022/01/28 05:39:21;;;;;;;14.20;4.40;;;3.90;99.90;;;;;;5052586;28;20052;-68
2022/01/28 05:41:48;;;;;;;28.17;4.40;;;4.00;99.90;;;;;;5053482;28;20374;-68
2022/01/28 05:44:15;;;;;;;19.38;4.95;;;4.00;99.90;;;;;;5052955;28;20057;-69
2022/01/28 05:46:44;;;;;;;17.33;4.13;;;4.10;99.90;;;;;;5053151;28;20053;-69
2022/01/28 05:49:11;;;;;;;18.52;4.47;;;4.10;99.90;;;;;;5052798;28;20056;-69
2022/01/28 05:51:39;;;;;;;19.45;4.22;;;5.00;99.90;;;;;;5052930;28;20041;-68
2022/01/28 05:54:06;;;;;;;21.20;4.15;;;4.20;99.90;;;;;;5053527;28;20091;-69
2022/01/28 05:56:33;;;;;;;24.95;4.80;;;4.30;99.90;;;;;;5051838;28;20126;-69
2022/01/28 05:59:00;;;;;;;15.05;4.03;;;4.40;99.90;;;;;;5052494;28;20037;-69
2022/01/28 06:01:27;;;;;;;22.27;5.10;;;4.40;99.90;;;;;;5053088;28;20061;-69
2022/01/28 06:03:53;;;;;;;27.40;5.25;;;4.50;99.90;;;;;;5050311;28;20461;-70
2022/01/28 06:06:22;;;;;;;19.10;3.85;;;4.50;99.90;;;;;;5053838;28;20098;-70
2022/01/28 06:08:53;;;;;;;20.90;4.10;;;4.60;99.90;;;;;;5052317;28;20088;-70
2022/01/28 06:11:20;;;;;;;;;;;4.70;99.90;;;;;;5052670;28;20057;-70
2022/01/28 06:13:47;;;;;;;15.07;3.75;;;4.70;99.90;;;;;;5052068;28;19970;-70
2022/01/28 06:16:15;;;;;;;15.32;4.00;;;4.70;99.90;;;;;;5052582;28;20095;-69
2022/01/28 06:18:43;;;;;;;17.60;4.32;;;4.80;99.90;;;;;;5052311;28;20095;-68
2022/01/28 06:21:10;;;;;;;20.33;4.40;;;4.80;99.90;;;;;;5052053;28;20107;-68
2022/01/28 06:23:37;;;;;;;18.40;4.55;;;4.80;99.90;;;;;;5052939;28;20111;-69
2022/01/28 06:26:06;;;;;;;16.35;4.18;;;4.80;99.90;;;;;;5052244;28;20044;-69
2022/01/28 06:28:33;;;;;;;21.08;4.25;;;4.80;99.90;;;;;;5052356;28;20041;-70
2022/01/28 06:31:00;;;;;;;24.52;4.63;;;4.80;99.90;;;;;;5052406;28;20447;-71
2022/01/28 06:33:28;;;;;;;18.17;3.88;;;4.80;99.90;;;;;;5051579;28;20098;-69
2022/01/28 06:35:55;;;;;;;18.13;5.32;;;4.80;99.90;;;;;;5052577;28;20057;-70
2022/01/28 06:38:22;;;;;;;16.65;4.00;;;4.80;99.90;;;;;;5053447;28;20049;-69
2022/01/28 06:40:49;;;;;;;17.80;4.13;;;4.80;99.90;;;;;;5052943;28;20456;-69
2022/01/28 06:43:17;;;;;;;16.77;4.93;;;4.80;99.90;;;;;;5051725;28;20053;-70
2022/01/28 06:45:44;;;;;;;25.08;4.68;;;4.80;99.90;;;;;;5052640;28;20106;-69
2022/01/28 06:48:12;;;;;;;17.30;4.47;;;4.70;99.90;;;;;;5042314;28;20048;-69
2022/01/28 06:50:41;;;;;;;19.25;4.78;;;4.60;99.90;;;;;;5050698;28;20554;-69
2022/01/28 06:53:09;;;;;;;24.67;5.97;;;4.50;99.90;;;;;;5047587;28;20065;-70
2022/01/28 06:55:36;;;;;;;22.08;4.28;;;4.40;99.90;;;;;;5050232;28;20060;-70
2022/01/28 06:58:04;;;;;;;22.27;4.22;;;4.40;99.90;;;;;;5050361;28;20056;-70
2022/01/28 07:00:36;;;;;;;20.90;4.80;;;4.30;99.90;;;;;;5050737;28;20558;-69
2022/01/28 07:03:04;;;;;;;18.25;5.35;;;4.30;99.90;;;;;;5049299;28;20150;-70
2022/01/28 07:05:31;;;;;;;18.35;4.13;;;4.20;99.90;;;;;;5050418;28;20084;-73
2022/01/28 07:07:58;;;;;;;16.10;4.75;;;4.20;99.90;;;;;;5050471;28;20099;-72
2022/01/28 07:10:25;;;;;;;19.60;4.63;;;4.10;99.90;;;;;;5049526;28;20110;-72
2022/01/28 07:12:54;;;;;;;22.08;4.47;;;4.10;99.90;;;;;;5049930;28;20041;-72
2022/01/28 07:15:23;;;;;;;24.50;4.68;;;4.10;99.90;;;;;;5050339;28;20111;-71
2022/01/28 07:17:51;;;;;;;22.38;5.32;;;4.10;99.90;;;;;;5051316;28;20053;-71
2022/01/28 07:20:18;;;;;;;28.70;6.07;;;4.00;99.90;;;;;;5050888;28;20107;-71
2022/01/28 07:22:45;;;;;;;21.27;4.32;;;4.00;99.90;;;;;;5051546;28;20044;-71
2022/01/28 07:25:12;;;;;;;23.83;4.65;;;4.10;99.90;;;;;;5067156;28;20103;-73
2022/01/28 07:27:39;;;;;;;19.83;5.13;;;4.10;99.90;;;;;;5052180;28;20550;-71
2022/01/28 07:30:10;;;;;;;20.05;4.88;;;4.20;99.90;;;;;;5051251;28;20110;-71
2022/01/28 07:32:37;;;;;;;11.40;4.40;;;4.20;99.90;;;;;;5067723;28;20059;-72
2022/01/28 07:35:06;;;;;;;23.50;4.75;;;4.30;99.90;;;;;;5050625;28;20053;-71
2022/01/28 07:37:33;;;;;;;19.88;4.47;;;4.20;99.90;;;;;;5067191;28;20415;-71
2022/01/28 07:40:02;;;;;;;21.05;5.63;;;4.20;99.90;;;;;;5051716;28;20130;-72
2022/01/28 07:42:33;;;;;;;13.55;4.38;;;4.20;99.90;;;;;;5052357;28;20041;-72
2022/01/28 07:44:59;;;;;;;;;;;4.20;99.90;;;;;;5050726;28;20500;-71
2022/01/28 07:47:26;;;;;;;26.10;5.00;;;4.20;99.90;;;;;;5050715;28;20407;-71
2022/01/28 07:49:53;;;;;;;26.33;6.75;;;4.20;99.90;;;;;;5044989;28;20544;-71
2022/01/28 07:52:21;;;;;;;27.17;5.13;;;4.10;99.90;;;;;;5050103;28;20073;-71
2022/01/28 07:54:49;;;;;;;19.08;5.15;;;4.10;99.90;;;;;;5065517;28;20061;-71
2022/01/28 07:57:17;;;;;;;26.02;5.38;;;4.20;99.90;;;;;;5050020;28;20503;-72
2022/01/28 07:59:44;;;;;;;27.45;4.72;;;4.10;99.90;;;;;;5049953;28;20142;-70
2022/01/28 08:02:11;;;;;;;23.65;5.18;;;4.00;99.90;;;;;;5050173;28;20095;-72
2022/01/28 08:04:38;;;;;;;18.75;4.90;;;4.00;99.90;;;;;;5050002;28;20065;-71
2022/01/28 08:07:05;;;;;;;19.95;5.65;;;4.00;99.90;;;;;;5050465;28;20103;-71
2022/01/28 08:09:33;;;;;;;20.88;3.92;;;4.00;99.90;;;;;;5066932;28;20061;-71
2022/01/28 08:12:00;;;;;;;19.08;4.40;;;4.00;99.90;;;;;;5049298;28;20493;-70
2022/01/28 08:14:28;;;;;;;15.70;5.35;;;4.00;99.90;;;;;;5051427;28;20061;-70
2022/01/28 08:16:55;;;;;;;21.00;4.25;;;4.10;99.90;;;;;;5050096;28;20459;-70
2022/01/28 08:19:22;;;;;;;29.63;4.47;;;4.10;99.90;;;;;;5049721;28;20057;-72
2022/01/28 08:21:49;;;;;;;20.02;4.30;;;4.20;99.90;;;;;;5050006;28;20049;-72
2022/01/28 08:24:16;;;;;;;24.13;4.20;;;4.30;99.90;;;;;;5061540;28;20060;-71
2022/01/28 08:26:44;;;;;;;25.15;5.40;;;4.40;99.90;;;;;;5042327;28;20442;-70
2022/01/28 08:29:11;;;;;;;22.90;4.30;;;4.50;99.90;;;;;;5047419;28;20049;-71
2022/01/28 08:31:38;;;;;;;23.20;4.35;;;4.60;99.90;;;;;;5049691;28;20052;-72
2022/01/28 08:34:05;;;;;;;20.95;5.63;;;4.70;99.90;;;;;;5048940;28;20130;-72
2022/01/28 08:36:33;;;;;;;19.17;5.55;;;4.80;99.90;;;;;;5049911;28;20092;-71
2022/01/28 08:39:03;;;;;;;24.08;6.50;;;5.20;99.90;;;;;;5049832;28;20476;-71
2022/01/28 08:41:30;;;;;;;16.58;3.38;;;5.80;99.90;;;;;;5049621;28;20060;-70
2022/01/28 08:43:58;;;;;;;18.92;5.63;;;6.60;99.90;;;;;;5050448;28;20455;-71
2022/01/28 08:46:25;;;;;;;25.48;4.53;;;7.30;99.90;;;;;;5049608;28;20044;-71
2022/01/28 08:48:51;;;;;;;23.48;4.43;;;7.70;99.90;;;;;;5049145;28;20118;-72
2022/01/28 08:51:18;;;;;;;12.77;3.75;;;8.40;99.90;;;;;;5051317;28;20551;-71
2022/01/28 08:53:45;;;;;;;20.80;4.78;;;9.30;99.90;;;;;;5048725;28;20048;-72
2022/01/28 08:56:12;;;;;;;22.55;5.50;;;9.90;99.90;;;;;;5049995;28;20049;-72
2022/01/28 08:58:39;;;;;;;25.17;5.85;;;10.10;99.90;;;;;;5048707;28;20493;-72
2022/01/28 09:01:07;;;;;;;17.08;4.28;;;10.80;99.90;;;;;;5052431;28;20057;-72
2022/01/28 09:03:34;;;;;;;15.70;4.22;;;11.60;99.90;;;;;;5052355;28;20397;-71
2022/01/28 09:06:01;;;;;;;16.35;4.45;;;11.90;99.90;;;;;;5053538;28;20416;-72
2022/01/28 09:08:28;;;;;;;17.33;4.85;;;12.30;99.90;;;;;;5054208;28;20102;-71
2022/01/28 09:11:00;;;;;;;21.55;4.60;;;13.10;99.90;;;;;;5054891;28;20056;-71
2022/01/28 09:13:37;;;;;;;16.88;5.07;;;13.00;99.90;;;;;;5052567;28;20053;-71
2022/01/28 09:16:04;;;;;;;18.67;4.97;;;13.00;99.90;;;;;;5051309;28;20065;-71
2022/01/28 09:18:33;;;;;;;14.07;4.32;;;13.50;99.90;;;;;;5070379;28;20045;-71
2022/01/28 09:20:59;;;;;;;24.88;4.53;;;13.40;99.90;;;;;;5053174;28;20484;-72
2022/01/28 09:23:26;;;;;;;24.77;4.68;;;13.20;99.90;;;;;;5052747;28;20057;-71
2022/01/28 09:25:53;;;;;;;12.07;4.38;;;12.60;99.90;;;;;;5053034;28;20132;-72
2022/01/28 09:28:20;;;;;;;16.13;4.47;;;12.20;99.90;;;;;;5053104;28;20057;-71
2022/01/28 09:30:47;;;;;;;17.98;4.25;;;11.60;99.90;;;;;;5052124;28;20048;-71
2022/01/28 09:33:14;;;;;;;20.75;5.00;;;10.80;99.90;;;;;;5052996;28;20290;-72
2022/01/28 09:35:42;;;;;;;16.08;4.45;;;10.50;99.90;;;;;;5052491;28;20053;-72
2022/01/28 09:38:10;;;;;;;20.52;5.00;;;10.70;99.90;;;;;;5053695;28;20060;-72
2022/01/28 09:40:37;;;;;;;16.55;4.07;;;10.70;99.90;;;;;;5052639;28;20045;-72
2022/01/28 09:43:07;;;;;;;14.75;4.50;;;11.00;99.90;;;;;;5052369;28;20156;-71
2022/01/28 09:45:34;;;;;;;22.00;4.90;;;10.80;99.90;;;;;;5052531;28;20106;-70
2022/01/28 09:48:01;;;;;;;17.50;4.65;;;10.70;99.90;;;;;;5052868;28;20103;-71
2022/01/28 09:50:29;;;;;;;25.73;5.43;;;10.40;99.90;;;;;;5053026;28;20492;-70
2022/01/28 09:52:58;;;;;;;18.20;5.10;;;10.10;99.90;;;;;;5051667;28;20531;-71
2022/01/28 09:55:27;;;;;;;20.27;4.80;;;9.80;99.90;;;;;;5052393;28;20060;-71
2022/01/28 09:57:56;;;;;;;18.15;4.05;;;9.80;99.90;;;;;;5048792;28;20049;-71
2022/01/28 10:00:25;;;;;;;20.63;5.35;;;9.60;99.90;;;;;;5052368;28;20611;-71
2022/01/28 10:02:55;;;;;;;20.85;4.35;;;9.50;99.90;;;;;;5052948;28;20508;-71
2022/01/28 10:05:26;;;;;;;23.02;5.32;;;9.40;99.90;;;;;;5052041;28;20457;-72
2022/01/28 10:08:04;;;;;;;;;;;9.30;99.90;;;;;;5052094;28;20464;-70
2022/01/28 10:10:53;;;;;;;19.70;4.82;;;9.10;99.90;;;;;;5068965;28;19971;-72
2022/01/28 10:13:25;;;;;;;19.30;5.75;;;9.10;99.90;;;;;;5048452;28;20416;-72
2022/01/28 10:16:05;;;;;;;25.33;6.35;;;8.90;99.90;;;;;;5052114;28;20060;-72
2022/01/28 10:18:41;;;;;;;26.83;5.22;;;8.70;99.90;;;;;;5051347;28;20061;-71
2022/01/28 10:21:31;;;;;;;22.77;5.82;;;8.80;99.90;;;;;;5052107;28;20049;-71
2022/01/28 10:24:11;;;;;;;21.67;5.00;;;8.70;99.90;;;;;;5049505;28;20053;-71
2022/01/28 10:26:41;;;;;;;25.45;5.50;;;8.60;99.90;;;;;;5065907;28;20570;-71
2022/01/28 10:29:09;;;;;;;19.88;4.90;;;8.60;99.90;;;;;;5068850;28;20497;-71
2022/01/28 10:31:43;;;;;;;20.27;4.80;;;8.80;99.90;;;;;;5051775;28;20045;-71
2022/01/28 10:34:15;;;;;;;19.23;4.65;;;8.90;99.90;;;;;;5050380;28;20064;-71
2022/01/28 10:36:41;;;;;;;15.27;4.28;;;8.90;99.90;;;;;;5051336;28;20512;-71
2022/01/28 10:39:16;;;;;;;19.25;4.68;;;9.10;99.90;;;;;;5052990;28;20099;-72
2022/01/28 10:42:04;;;;;;;22.67;4.80;;;9.10;99.90;;;;;;5051741;28;20467;-71
2022/01/28 10:44:31;;;;;;;25.10;5.15;;;9.30;99.90;;;;;;5045472;28;20053;-71
2022/01/28 10:47:00;;;;;;;16.55;4.43;;;9.30;99.90;;;;;;5051377;28;20049;-71
2022/01/28 10:49:33;;;;;;;26.73;5.43;;;9.50;99.90;;;;;;5052516;28;20045;-71
2022/01/28 10:52:07;;;;;;;18.50;4.30;;;9.80;99.90;;;;;;5068579;28;20045;-71
2022/01/28 10:54:36;;;;;;;18.00;3.85;;;10.00;99.90;;;;;;5047691;28;20501;-71
2022/01/28 10:57:05;;;;;;;28.63;4.60;;;10.20;99.90;;;;;;5050913;28;20049;-71
2022/01/28 10:59:33;;;;;;;28.65;4.95;;;10.50;99.90;;;;;;5051990;28;20044;-72
2022/01/28 11:02:00;;;;;;;17.17;4.47;;;10.60;99.90;;;;;;5050107;28;20098;-72
2022/01/28 11:04:27;;;;;;;15.13;4.65;;;10.60;99.90;;;;;;5052634;28;20056;-73
2022/01/28 11:06:59;;;;;;;15.85;4.07;;;10.60;99.90;;;;;;5051460;28;20098;-71
2022/01/28 11:09:26;;;;;;;17.55;4.57;;;10.50;99.90;;;;;;5051182;28;20467;-72
2022/01/28 11:11:55;;;;;;;17.10;4.28;;;10.90;99.90;;;;;;5052357;28;20053;-71
2022/01/28 11:14:25;;;;;;;20.77;4.35;;;11.20;99.90;;;;;;5051086;28;20057;-72
2022/01/28 11:16:52;;;;;;;16.33;4.25;;;11.60;99.90;;;;;;5051312;28;20076;-70
2022/01/28 11:19:22;;;;;;;20.58;4.22;;;11.40;99.90;;;;;;5045421;28;20107;-72
2022/01/28 11:22:08;;;;;;;15.10;4.60;;;11.30;99.90;;;;;;5050120;28;20132;-71
2022/01/28 11:24:50;;;;;;;18.88;5.38;;;10.90;99.90;;;;;;5060157;28;20095;-70
2022/01/28 11:27:28;;;;;;;13.45;4.20;;;10.60;99.90;;;;;;5068679;28;20451;-71
2022/01/28 11:30:17;;;;;;;16.42;4.85;;;10.40;99.90;;;;;;5067582;28;20048;-71
2022/01/28 11:33:01;;;;;;;20.92;5.10;;;10.20;99.90;;;;;;5068331;28;20057;-71
2022/01/28 11:35:30;;;;;;;16.48;3.78;;;10.20;99.90;;;;;;5062824;28;20063;-71
2022/01/28 11:38:03;;;;;;;17.10;4.57;;;10.20;99.90;;;;;;5054852;28;20052;-71
2022/01/28 11:40:43;;;;;;;18.98;4.82;;;10.80;99.90;;;;;;5061757;28;20056;-70
2022/01/28 11:43:20;;;;;;;18.35;4.47;;;11.20;99.90;;;;;;5066494;28;20064;-73
2022/01/28 11:45:46;;;;;;;15.95;4.15;;;11.40;99.90;;;;;;5050046;28;20053;-72
2022/01/28 11:48:13;;;;;;;13.10;4.28;;;11.50;99.90;;;;;;5066143;28;20049;-72
2022/01/28 11:50:40;;;;;;;15.00;3.70;;;10.90;99.90;;;;;;5049404;28;20045;-72
2022/01/28 11:53:22;;;;;;;16.05;3.88;;;10.70;99.90;;;;;;5049131;28;20102;-71
2022/01/28 11:56:01;;;;;;;17.17;3.90;;;10.70;99.90;;;;;;5050398;28;20044;-72
2022/01/28 11:58:53;;;;;;;16.23;3.75;;;10.60;99.90;;;;;;5046948;28;20492;-72
2022/01/28 12:01:24;;;;;;;14.68;4.53;;;10.60;99.90;;;;;;5050619;28;20497;-73
2022/01/28 12:03:52;;;;;;;13.43;3.95;;;10.10;99.90;;;;;;5049330;28;20052;-71
2022/01/28 12:06:19;;;;;;;18.52;4.38;;;10.00;99.90;;;;;;5049133;28;20088;-71
2022/01/28 12:08:46;;;;;;;17.05;3.63;;;10.20;99.90;;;;;;5049073;28;20052;-71
2022/01/28 12:11:14;;;;;;;14.43;3.83;;;10.20;99.90;;;;;;5048250;28;20041;-72
2022/01/28 12:14:01;;;;;;;16.98;3.10;;;10.40;99.90;;;;;;5049863;28;20056;-73
2022/01/28 12:16:32;;;;;;;17.98;4.00;;;10.50;99.90;;;;;;5048741;28;20080;-72
2022/01/28 12:19:01;;;;;;;16.80;4.18;;;10.50;99.90;;;;;;5049659;28;20079;-71
2022/01/28 12:21:31;;;;;;;13.98;4.13;;;10.60;99.90;;;;;;5050057;28;20173;-72
2022/01/28 12:24:33;;;;;;;19.00;4.35;;;10.70;99.90;;;;;;5049016;28;20125;-70
2022/01/28 12:27:02;;;;;;;14.15;3.60;;;11.80;99.90;;;;;;5049168;28;20108;-73
2022/01/28 12:29:29;;;;;;;12.18;3.85;;;12.90;99.90;;;;;;5048839;28;20048;-72
2022/01/28 12:31:59;;;;;;;14.55;3.47;;;14.40;99.10;;;;;;5051068;28;20061;-72
2022/01/28 12:34:27;;;;;;;14.65;3.75;;;14.90;95.60;;;;;;5053636;28;20061;-73
2022/01/28 12:36:56;;;;;;;13.35;3.38;;;14.30;96.30;;;;;;5049831;28;20114;-72
2022/01/28 12:39:33;;;;;;;18.48;4.13;;;13.50;96.00;;;;;;5053479;28;20049;-71
2022/01/28 12:42:06;;;;;;;21.80;4.70;;;12.80;98.10;;;;;;5053535;28;20056;-72
2022/01/28 12:44:34;;;;;;;14.05;3.78;;;11.80;98.40;;;;;;5053461;28;20075;-71
2022/01/28 12:47:05;;;;;;;15.70;4.55;;;11.90;99.90;;;;;;5052496;28;20049;-72
2022/01/28 12:49:33;;;;;;;15.75;3.67;;;12.70;99.50;;;;;;5055140;28;20146;-71
2022/01/28 12:52:02;;;;;;;10.85;3.28;;;13.50;99.30;;;;;;5053298;28;20574;-72
2022/01/28 12:54:34;;;;;;;13.20;3.90;;;14.50;97.90;;;;;;5053061;28;20106;-71
2022/01/28 12:57:01;;;;;;;27.55;5.05;;;15.20;94.40;;;;;;5052837;28;20567;-72
2022/01/28 12:59:28;;;;;;;13.02;3.95;;;15.50;93.80;;;;;;5053383;28;20045;-72
2022/01/28 13:01:55;;;;;;;17.85;3.90;;;15.10;93.40;;;;;;5052425;28;20057;-72
2022/01/28 13:04:36;;;;;;;16.77;3.75;;;15.30;91.70;;;;;;5053474;28;20052;-72
2022/01/28 13:09:49;;;;;;;13.48;3.38;;;14.20;94.30;;;;;;5053115;28;20139;-74
2022/01/28 13:12:23;;;;;;;14.40;3.58;;;13.20;95.60;;;;;;5066694;28;20711;-72
2022/01/28 13:14:50;;;;;;;18.73;3.95;;;12.20;97.20;;;;;;5048355;28;20045;-72
2022/01/28 13:17:21;;;;;;;17.02;4.35;;;11.90;98.90;;;;;;5052964;28;20079;-72
2022/01/28 13:19:59;;;;;;;15.68;4.10;;;12.10;99.90;;;;;;5053382;28;20130;-72
2022/01/28 13:22:28;;;;;;;19.52;4.68;;;11.70;99.90;;;;;;5051628;28;20067;-72
2022/01/28 13:24:56;;;;;;;14.77;3.92;;;11.60;99.90;;;;;;5052827;28;20077;-71
2022/01/28 13:27:39;;;;;;;11.65;3.00;;;12.00;99.90;;;;;;5047757;28;20717;-72
2022/01/28 13:30:13;;;;;;;14.65;3.60;;;12.70;99.90;;;;;;5052942;28;20114;-71
2022/01/28 13:32:41;;;;;;;10.40;3.63;;;13.70;99.70;;;;;;5058818;28;20041;-72
2022/01/28 13:35:14;;;;;;;12.98;3.15;;;14.10;97.60;;;;;;5046567;28;20095;-71
2022/01/28 13:37:43;;;;;;;9.93;3.38;;;14.40;96.90;;;;;;5052365;28;20144;-71
2022/01/28 13:40:12;;;;;;;11.23;3.33;;;13.90;96.10;;;;;;5052574;28;20119;-72
2022/01/28 13:42:57;;;;;;;12.45;3.85;;;13.10;96.90;;;;;;5050808;28;20497;-71
2022/01/28 13:45:30;;;;;;;15.75;3.15;;;12.60;98.40;;;;;;5051760;28;20059;-71
2022/01/28 13:47:58;;;;;;;11.07;3.17;;;12.60;99.10;;;;;;5052197;28;20057;-72
2022/01/28 13:50:29;;;;;;;13.45;3.72;;;13.40;98.90;;;;;;5051175;28;20053;-72
2022/01/28 13:53:21;;;;;;;15.30;3.33;;;13.50;97.70;;;;;;5052558;28;20136;-72